createdAt,value
2023-08-13T00:01:08.790Z,97191.96
2023-08-13T00:11:23.563Z,97189.44
2023-08-13T00:21:29.578Z,97187.20
2023-08-13T00:31:33.571Z,97197.80
2023-08-13T00:41:36.789Z,97195.91
2023-08-13T00:51:40.345Z,97195.51
2023-08-13T01:01:45.249Z,97207.06
2023-08-13T01:12:03.661Z,97213.66
2023-08-13T01:22:06.781Z,97217.08
2023-08-13T01:32:14.941Z,97213.05
2023-08-13T01:42:19.822Z,97215.61
2023-08-13T01:52:22.824Z,97223.19
2023-08-13T02:02:28.816Z,97231.13
2023-08-13T02:12:46.525Z,97230.07
2023-08-13T02:23:01.807Z,97238.08
2023-08-13T02:33:05.517Z,97240.75
2023-08-13T02:43:09.062Z,97237.77
2023-08-13T02:53:12.723Z,97237.36
2023-08-13T03:03:16.158Z,97237.08
2023-08-13T03:13:19.815Z,97236.62
2023-08-13T03:23:25.764Z,97231.95
2023-08-13T03:33:32.933Z,97233.20
2023-08-13T03:43:41.861Z,97233.88
2023-08-13T03:53:48.987Z,97236.99
2023-08-13T04:03:53.105Z,97240.41
2023-08-13T04:13:57.604Z,97242.14
2023-08-13T04:24:01.702Z,97237.73
2023-08-13T04:34:08.927Z,97244.92
2023-08-13T04:44:12.528Z,97243.20
2023-08-13T04:54:16.366Z,97241.90
2023-08-13T05:04:20.344Z,97240.17
2023-08-13T05:14:25.749Z,97237.07
2023-08-13T05:24:31.437Z,97238.11
2023-08-13T05:34:35.924Z,97234.27
2023-08-13T05:44:39.010Z,97229.85
2023-08-13T05:54:42.242Z,97232.64
2023-08-13T06:04:46.293Z,97235.64
2023-08-13T06:14:49.842Z,97239.23
2023-08-13T06:24:52.960Z,97234.99
2023-08-13T06:34:56.201Z,97239.39
2023-08-13T06:45:03.322Z,97241.33
2023-08-13T06:55:06.670Z,97243.40
2023-08-13T07:05:13.290Z,97240.80
2023-08-13T07:15:16.509Z,97250.10
2023-08-13T07:25:20.508Z,97255.47
2023-08-13T07:35:23.762Z,97249.10
2023-08-13T07:45:28.140Z,97245.11
2023-08-13T07:55:31.275Z,97243.52
2023-08-13T08:05:34.342Z,97237.92
2023-08-13T08:15:37.525Z,97234.03
2023-08-13T08:25:40.735Z,97233.04
2023-08-13T08:35:43.890Z,97230.87
2023-08-13T08:45:47.564Z,97224.39
2023-08-13T08:55:50.794Z,97209.31
2023-08-13T09:05:54.225Z,97200.41
2023-08-13T09:15:57.980Z,97203.89
2023-08-13T09:26:00.991Z,97193.35
2023-08-13T09:36:04.134Z,97191.30
2023-08-13T09:46:10.280Z,97190.45
2023-08-13T09:56:16.064Z,97182.80
2023-08-13T10:06:23.199Z,97177.00
2023-08-13T10:16:28.582Z,97181.65
2023-08-13T10:26:32.083Z,97174.57
2023-08-13T10:36:55.878Z,97173.36
2023-08-13T10:46:59.344Z,97166.53
2023-08-13T10:57:02.992Z,97161.40
2023-08-13T11:07:07.677Z,97160.85
2023-08-13T11:17:10.880Z,97156.30
2023-08-13T11:27:13.933Z,97147.36
2023-08-13T11:37:17.030Z,97146.39
2023-08-13T11:47:28.725Z,97146.15
2023-08-13T11:57:34.873Z,97142.73
2023-08-13T12:07:41.980Z,97136.73
2023-08-13T12:17:45.099Z,97133.42
2023-08-13T12:27:52.109Z,97120.66
2023-08-13T12:37:55.143Z,97120.77
2023-08-13T12:48:00.096Z,97114.46
2023-08-13T12:58:03.165Z,97109.02
2023-08-13T13:08:06.536Z,97100.61
2023-08-13T13:18:11.932Z,97096.63
2023-08-13T13:28:15.146Z,97096.60
2023-08-13T13:38:18.154Z,97088.10
2023-08-13T13:48:22.086Z,97078.92
2023-08-13T13:58:25.165Z,97078.42
2023-08-13T14:08:28.276Z,97076.66
2023-08-13T14:18:31.383Z,97068.50
2023-08-13T14:28:34.427Z,97065.52
2023-08-13T14:38:37.423Z,97063.63
2023-08-13T14:48:42.546Z,97071.83
2023-08-13T14:59:11.561Z,97072.34
2023-08-13T15:09:15.596Z,97071.58
2023-08-13T15:19:18.677Z,97069.98
2023-08-13T15:29:21.815Z,97072.34
2023-08-13T15:39:25.274Z,97063.98
2023-08-13T15:49:28.595Z,97063.55
2023-08-13T15:59:32.976Z,97060.36
2023-08-13T16:09:36.047Z,97053.11
2023-08-13T16:19:39.662Z,97057.39
2023-08-13T16:29:42.760Z,97057.92
2023-08-13T16:40:11.020Z,97060.83
2023-08-13T16:50:15.479Z,97073.79
2023-08-13T17:00:19.411Z,97087.06
2023-08-13T17:10:22.562Z,97090.52
2023-08-13T17:20:25.715Z,97087.64
2023-08-13T17:30:31.073Z,97093.14
2023-08-13T17:40:36.276Z,97099.39
2023-08-13T17:50:40.642Z,97110.33
2023-08-13T18:00:43.906Z,97122.89
2023-08-13T18:10:47.177Z,97137.09
2023-08-13T18:20:50.400Z,97141.88
2023-08-13T18:30:53.752Z,97155.98
2023-08-13T18:40:58.047Z,97167.11
2023-08-13T18:51:02.928Z,97185.50
2023-08-13T19:01:06.296Z,97192.39
2023-08-13T19:11:09.344Z,97202.43
2023-08-13T19:21:12.659Z,97214.36
2023-08-13T19:31:15.730Z,97214.45
2023-08-13T19:41:18.835Z,97212.70
2023-08-13T19:51:22.044Z,97214.08
2023-08-13T20:01:25.678Z,97214.79
2023-08-13T20:11:28.696Z,97219.77
2023-08-13T20:21:49.567Z,97221.67
2023-08-13T20:31:52.665Z,97226.77
2023-08-13T20:41:55.852Z,97232.54
2023-08-13T20:51:58.957Z,97234.30
2023-08-13T21:02:02.101Z,97241.71
2023-08-13T21:12:05.488Z,97245.19
2023-08-13T21:22:08.640Z,97253.45
2023-08-13T21:32:11.642Z,97255.38
2023-08-13T21:42:14.931Z,97243.17
2023-08-13T21:52:18.653Z,97243.90
2023-08-13T22:02:22.168Z,97250.36
2023-08-13T22:12:49.926Z,97260.70
2023-08-13T22:22:53.879Z,97258.38
2023-08-13T22:32:57.161Z,97255.63
2023-08-13T22:43:00.537Z,97244.43
2023-08-13T22:53:03.869Z,97244.98
2023-08-13T23:03:06.926Z,97240.30
2023-08-13T23:13:10.517Z,97235.96
2023-08-13T23:23:13.898Z,97225.36
2023-08-13T23:33:17.804Z,97223.45
2023-08-13T23:43:20.781Z,97217.63
2023-08-13T23:53:23.986Z,97217.47
